Airfield :
LOGIN :

Register | Disclaimer

   EN    FR    IT 

 










Legend :    VFR   Marginal VFR   IFR   Intensive IFR   Very Intensive IFR
Visi :
Ceiling :
>= 8 km
>= 3000ft
5 to 8 km
1000 to 3000 ft
1500m to 5 km
500 to 1000 ft
800 to 1500m
200 to 500 ft
< 800m
< 200 ft
Symbols :   Thunderstorms  Fog  Heavy snow  Heavy precipitations  Wind > 20 kt
SIGMETs :     Misc.  Thunderstorms  Icing  Turbulence  Mountain Waves  Volcanic Ashes






- Airport Elevation : 187 ft


LPMR - Monte Real Air Base

CURRENT METAR :
  • 151300Z 30008KT 240V330 9999 SCT025 22/16 Q1019

EXPIRED METARs :
  • 151200Z 30009KT 260V340 9999 BKN025 22/15 Q1019
  • 151100Z 33006KT 290V360 9999 BKN025 21/16 Q1018
  • 151000Z 34007KT 9999 SCT018 21/17 Q1018
  • 150900Z 31006KT 260V360 9999 SCT015 19/16 Q1017

TAF TAF LPMR
Valid from the 15 at 12:00 until the 16 at 12:00 UTC


151100Z 1512/1612 33010KT 9999 FEW022
BECMG 1601/1603 35005KT 6000 BKN005
PROB40 1602/1608 1200 BR BKN002
BECMG 1608/1611 34010KT CAVOK



MET'MAP, your aeronautical weather chart ! - Copyright ORBIFLY December 2007 - Disclaimer

ORBIFLY MET'MAP TEAM :

Programming & Development : Alexandra Zaïnal
Original concept : Baudouin d'Aumeries
Technical & hardware support : Manuel Goepfert
Assistance : Marc-Olivier Méhu




SOURCES & CREDITS :

   NOAA